默认 日期 大小 文件数 浏览量 最新下载 xml
axis磁力链接相关资源由用户搜索指令自动获取,结果来源于网络,本站不存储任何资料,亦不承担任何责任,请于24小时内删除,搜索到1344个磁力,用时1ms。
    {"Setup.exe": 5633913, "Data-01.bin": 20851786889}
创建时间: 2025-03-30 13:20:03 大小:19.42 GB 文件数量:2 热度:1 最近下载:2025-03-31 21:56:02
    {"Redists": {"PhysX": {"NVIDIA PhysX System Software.exe": 29580368}, "DotNet": {"NDP481-Web.exe": 1466664}, "DirectX": {"dxwebsetup.exe": 295320}, "vcredist": {"2022": {"VC_redist.x64.exe": 25502344, "VC_redist.x86.exe": 13950496}}}, "data1.bin": ...
创建时间: 2025-03-30 10:10:10 大小:23.32 GB 文件数量:7 热度:1 最近下载:2025-03-30 23:23:02
    {"Front.jpg": 75709, "11. Faith.mp3": 11815435, "08. Desire.mp3": 11348367, "01. The King.mp3": 10189579, "02. Line of Duty.mp3": 9124836, "06. Bewilderness.mp3": 13382795, "05. No Man's Land.mp3": 14957459, "13. Over the Edge.mp3": 8491631, "07. Top of ...
创建时间: 2025-03-26 14:48:55 大小:137.74 MB 文件数量:14 热度:3 最近下载:2025-08-11 19:18:01
    {"~Get Your Files Here !": {"5 - Course Resource": {"1 - Module 1, 2 and 3.html": 13699}, "Bonus Resources.txt": 70, "1 - Module 1 Introduction": {"1 -Introduction.mp4": 12838530, "3 -Operating Principles.mp4": 51796556, "2 -What is a CNC Router Milling ...
创建时间: 2025-03-25 15:15:02 大小:2.24 GB 文件数量:52 热度:4 最近下载:2025-09-18 09:50:01
    ... Dark.mp3": 5131743, "01. An Axis Of Perdition - To Walk The ... Hell.mp3": 17264924, "02. An Axis Of Perdition - Chained In The ... Asylum.mp3": 13704961, "03. An Axis Of Perdition - Born Under The ...
创建时间: 2025-03-17 14:28:15 大小:1.04 GB 文件数量:95 热度:2 最近下载:2025-03-19 08:58:03
    {"Bonus": {"The Axis Unseen Soundtrack": {"RemasteredFromClifford_MP3": {"19 The ... Bones.mp3": 6910305, "32 The Axis Unseen.mp3": 6542337, "23 The ... , "Crack [RUNE].rar": 514854}, "The Axis Unseen": {"Windows": {"Engine": {"Extras": {"Redist ...
创建时间: 2025-03-08 17:59:13 大小:24.44 GB 文件数量:147 热度:2 最近下载:2025-04-23 23:30:03
    {"cover.jpg": 56310, "01 - Exp.flac": 38764898, "07 - If 6 Was 9.flac": 121127886, "06 - Little Wing.flac": 53135381, "13 - Bold as Love.flac": 94201638, "10 - She's So Fine.flac": 59909240, "11 - One Rainy Wish.flac": 81567432, "05 - Ain't No Telling.flac ...
创建时间: 2025-03-06 13:57:01 大小:820.3 MB 文件数量:14 热度:3 最近下载:2025-08-02 16:26:06
    {"Setup.exe": 1719065, "Setup-0.bin": 363997629, "Setup-1.bin": 2098280704, "Setup-2.bin": 2100000000, "Setup-3.bin": 2100000000, "Setup-4.bin": 2100000000, "Setup-5.bin": 2100000000, "Setup-6.bin": 2100000000, "Setup-7.bin": 2100000000, "Setup-8.bin": ...
创建时间: 2025-03-02 14:20:09 大小:23.59 GB 文件数量:14 热度:3 最近下载:2025-03-18 08:59:02
    {"resources": {"cd.jpg": 1126065, "cover.jpg": 1962132, "cover1.jpg": 2471918}, "AXIS_ALLIES.iso": 726839296}
创建时间: 2025-03-01 19:09:58 大小:698.47 MB 文件数量:4 热度:5 最近下载:2025-09-20 08:20:05
    {"Logo.jpg": 45362, "Photo.jpg": 165575, "2018 - Contempt For Man": {"Cover.jpg": 4670912, "16 - Defeat.mp3": 3353254, "01 - Vardelos.mp3": 4031396, "05 - Lockdown.mp3": 3994825, "18 - To Smite.mp3": 3925862, "20 - Flytande Dod.mp3": 7562115, "14 - The ...
创建时间: 2025-03-01 14:14:26 大小:147.95 MB 文件数量:44 热度:3 最近下载:2025-04-17 06:56:02
    {"BDMV": {"META": {"DL": {"meta.jpg": 93677, "bdmt_eng.xml": 797, "meta_sml.jpg": 19607}}, "BACKUP": {"CLIPINF": {"00000.clpi": 1904, "00001.clpi": 12096, "00002.clpi": 640, "00003.clpi": 600, "00004.clpi": 416, "00005.clpi": 292, "00006.clpi": 292}, " ...
创建时间: 2025-02-26 10:21:56 大小:7.7 GB 文件数量:38 热度:7 最近下载:2025-04-06 22:20:01
    {"KaOs.nfo": 13335, "Install.exe": 8271627, "KaOs-01.bin": 1105035882}
创建时间: 2025-02-25 19:56:14 大小:1.04 GB 文件数量:3 热度:4 最近下载:2025-04-27 01:41:03
    ... 1998375898, "The Dream Syndicate - Axis - Boston, MA - 1988-11 ... 14336, "_HOUR_00_The Dream Syndicate - Axis - Boston, MA - 1988-11 ... 807080, "_HOUR_01_The Dream Syndicate - Axis - Boston, MA - 1988-11 ... 344320, "The Dream Syndicate - Axis - Boston, MA - 1988-11 ...
创建时间: 2025-02-23 08:37:17 大小:2.61 GB 文件数量:22 热度:4 最近下载:2025-03-27 18:57:02
    {"Time Axis - Henry Kuttner.epub": 979566, "Time Axis - Henry Kuttner.mobi": 449191}
创建时间: 2025-02-21 12:18:51 大小:1.36 MB 文件数量:2 热度:3 最近下载:2025-03-19 07:34:02
    {"ZAPRASZAMY - EX-TORRENTY.ORG.html": 543, "Zapraszamy na ex-torrenty.org.url": 113, "Puppet Master Axis Termination (2017) .PL.720p.BDRip.XviD.AC3-ELiTE.avi": 2118055936}
创建时间: 2025-02-18 10:24:17 大小:1.97 GB 文件数量:3 热度:5 最近下载:2025-04-17 04:45:01
    {"Descargar Películas, Series y Animes Gratis....url": 50, "Traidora.Americana.El.Juicio.A.Axis.Sally..2021.1080P-Dual-Lat.mp4": 2091200832, "Traidora.Americana.El.Juicio.A.Axis.Sally..2021.1080P-Dual-Lat.srt": 113817}
创建时间: 2025-02-17 18:45:15 大小:1.95 GB 文件数量:3 热度:4 最近下载:2025-03-19 10:42:01
    ... ": 603874, "screen0004.png": 443424}, "rvkd-axis.2017.720p.web.h264.mkv ... ": 3358669490, "rvkd-axis.2017.720p.web.h264.nfo ...
创建时间: 2025-02-15 18:21:19 大小:3.13 GB 文件数量:7 热度:3 最近下载:2025-03-20 15:58:02
    {"_crack": {"Windows": {"Engine": {"Binaries": {"ThirdParty": {"Steamworks": {"Steamv157": {"Win64": {"flt.ini": 127, "steam_api64.dll": 288824, "steamclient64.dll": 11927552}}}}}}}}, "Windows": {"Engine": {"Extras": {"Redist": {"en-us": {" ...
创建时间: 2025-02-04 15:45:53 大小:23.56 GB 文件数量:116 热度:3 最近下载:2025-04-17 20:02:02
    {"Bonus": {"The Axis Unseen Soundtrack": {"RemasteredFromClifford_MP3": {"19 The ... Bones.mp3": 6910305, "32 The Axis Unseen.mp3": 6542337, "23 The ... , "Crack [RUNE].rar": 514854}, "The Axis Unseen": {"Windows": {"Engine": {"Extras": {"Redist ...
创建时间: 2025-01-22 16:04:10 大小:24.44 GB 文件数量:147 热度:2 最近下载:2025-03-08 08:22:03
    ... ": 484349, "Final Impact -- Axis Of Time Book III - John ... - Designated Targets": {"Designated Targets -- Axis Of Time Book II - John ... ": 551248, "Designated Targets -- Axis Of Time Book II - John ... epub": 540867, "Designated Targets -- Axis Of Time Book II - John ...
创建时间: 2025-01-22 10:34:15 大小:5.28 MB 文件数量:9 热度:4 最近下载:2025-04-18 12:25:01